Time;durP1;ratioP1;P1;durP2;ratioP2;P2;SDS_P1;SDS_P2;PMS_P1;PMS_P2;Temp;Humidity;BMP_temperature;BMP_pressure;BME280_temperature;BME280_humidity;BME280_pressure;Samples;Min_cycle;Max_cycle;Signal;HPM_P1;HPM_P2
2022/10/17 00:02:09;;;;;;;11.53;7.70;;;;;;;19.62;41.63;102305.09;1711956;82;21025;-79
2022/10/17 00:04:35;;;;;;;10.32;6.95;;;;;;;19.60;41.62;102309.50;1683757;83;21096;-79
2022/10/17 00:07:02;;;;;;;9.55;7.60;;;;;;;19.61;41.60;102319.45;1712026;83;21021;-79
2022/10/17 00:09:28;;;;;;;11.50;7.83;;;;;;;19.60;41.60;102317.78;1707360;83;21122;-79
2022/10/17 00:11:54;;;;;;;10.00;7.47;;;;;;;19.62;41.60;102325.80;1712230;83;21056;-79
2022/10/17 00:14:21;;;;;;;10.58;7.42;;;;;;;19.61;41.57;102321.37;1711838;83;21089;-80
2022/10/17 00:16:47;;;;;;;14.23;8.58;;;;;;;19.61;41.56;102326.91;1712231;83;21526;-80
2022/10/17 00:19:13;;;;;;;9.83;7.17;;;;;;;19.61;41.54;102326.91;1712305;83;21100;-79
2022/10/17 00:21:40;;;;;;;9.90;7.15;;;;;;;19.61;41.56;102326.91;1668864;83;21061;-79
2022/10/17 00:24:06;;;;;;;11.33;7.65;;;;;;;19.60;41.57;102324.69;1753349;81;21091;-79
2022/10/17 00:26:32;;;;;;;10.32;7.20;;;;;;;19.60;41.55;102332.97;1753149;81;21531;-79
2022/10/17 00:28:59;;;;;;;9.90;6.90;;;;;;;19.60;41.57;102337.11;1753090;81;21586;-79
2022/10/17 00:31:25;;;;;;;10.45;7.55;;;;;;;19.60;41.58;102328.03;1755112;80;21048;-79
2022/10/17 00:33:52;;;;;;;10.53;7.70;;;;;;;19.59;41.56;102328.58;1729074;81;21104;-79
2022/10/17 00:36:21;;;;;;;10.35;7.30;;;;;;;19.59;41.56;102331.88;1728747;83;21290;-80
2022/10/17 00:38:51;;;;;;;9.40;6.90;;;;;;;19.59;41.55;102327.20;1699304;83;21020;-79
2022/10/17 00:41:18;;;;;;;9.95;7.62;;;;;;;19.59;41.53;102329.95;1698759;83;21072;-79
2022/10/17 00:43:55;;;;;;;10.30;7.28;;;;;;;19.59;41.53;102323.60;1728926;81;21574;-79
2022/10/17 00:46:23;;;;;;;9.90;7.58;;;;;;;19.58;41.51;102326.91;1728134;82;21512;-80
2022/10/17 00:48:51;;;;;;;10.72;7.20;;;;;;;19.58;41.49;102328.84;1728665;82;21044;-80
2022/10/17 00:51:19;;;;;;;10.93;7.37;;;;;;;19.58;41.48;102330.22;1763184;80;21130;-80
2022/10/17 00:53:46;;;;;;;10.45;7.67;;;;;;;19.58;41.50;102336.58;1729064;81;21558;-80
2022/10/17 00:56:12;;;;;;;9.88;8.00;;;;;;;19.58;41.50;102336.58;1763004;81;21545;-80
2022/10/17 00:58:38;;;;;;;10.30;7.85;;;;;;;19.57;41.50;102338.22;1763265;81;21916;-80
2022/10/17 01:01:05;;;;;;;10.93;7.65;;;;;;;19.57;41.50;102336.28;1710952;81;21074;-80
2022/10/17 01:03:31;;;;;;;11.48;7.62;;;;;;;19.57;41.48;102336.84;1734869;81;21028;-80
2022/10/17 01:05:57;;;;;;;11.65;7.83;;;;;;;19.57;41.49;102334.08;1728601;81;21037;-80
2022/10/17 01:08:24;;;;;;;11.45;7.75;;;;;;;19.57;41.48;102340.42;1669773;84;21638;-80
2022/10/17 01:11:14;;;;;;;9.35;7.70;;;;;;;19.56;41.46;102337.38;1728552;81;21704;-80
2022/10/17 01:14:03;;;;;;;10.10;7.37;;;;;;;19.56;41.45;102336.00;1728962;82;21013;-80
2022/10/17 01:16:53;;;;;;;10.95;7.78;;;;;;;19.56;41.45;102340.72;1728945;82;21523;-80
2022/10/17 01:19:39;;;;;;;10.35;7.70;;;;;;;19.55;41.45;102335.75;1708608;81;21056;-80
2022/10/17 01:22:22;;;;;;;10.03;7.53;;;;;;;19.56;41.45;102340.72;1718600;81;21504;-80
2022/10/17 01:25:27;;;;;;;9.35;7.70;;;;;;;19.55;41.43;102341.81;1719050;83;21926;-80
2022/10/17 01:28:16;;;;;;;9.55;7.30;;;;;;;19.53;41.42;102337.94;1719201;83;21001;-80
2022/10/17 01:31:00;;;;;;;10.48;7.92;;;;;;;19.53;41.43;102335.73;1755260;81;21107;-80
2022/10/17 01:33:32;;;;;;;10.13;7.78;;;;;;;19.51;41.40;102339.33;1719112;81;21116;-80
2022/10/17 01:36:06;;;;;;;8.73;7.22;;;;;;;19.52;41.41;102340.96;1718915;83;21036;-80
2022/10/17 01:38:46;;;;;;;10.88;7.97;;;;;;;19.51;41.41;102333.26;1697801;83;21746;-80
2022/10/17 01:41:39;;;;;;;9.60;7.70;;;;;;;19.51;41.41;102337.40;1755340;80;21064;-80
2022/10/17 01:44:20;;;;;;;9.95;7.08;;;;;;;19.50;41.42;102337.11;1690431;83;21101;-80
2022/10/17 01:46:50;;;;;;;10.10;7.75;;;;;;;19.50;41.45;102339.88;1694909;83;21101;-80
2022/10/17 01:49:20;;;;;;;10.68;7.85;;;;;;;19.49;41.43;102339.59;1688052;84;21142;-80
2022/10/17 01:51:50;;;;;;;10.82;7.85;;;;;;;19.49;41.46;102334.62;1694967;84;21175;-80
2022/10/17 01:54:40;;;;;;;11.18;7.37;;;;;;;19.49;41.43;102345.11;1694790;84;21856;-80
2022/10/17 01:57:10;;;;;;;9.83;7.45;;;;;;;19.49;41.45;102354.77;1694333;84;21442;-80
2022/10/17 01:59:40;;;;;;;11.18;7.40;;;;;;;19.49;41.43;102360.30;1694805;83;21074;-80
2022/10/17 02:02:07;;;;;;;9.25;7.20;;;;;;;19.49;41.43;102359.46;1694816;84;21054;-80
2022/10/17 02:04:34;;;;;;;10.08;7.30;;;;;;;19.49;41.46;102358.91;1694458;84;21789;-80
2022/10/17 02:07:11;;;;;;;10.20;7.22;;;;;;;19.49;41.46;102364.98;1664992;84;21054;-80
2022/10/17 02:09:37;;;;;;;11.05;7.15;;;;;;;19.49;41.45;102359.46;1694656;84;21062;-80
2022/10/17 02:12:30;;;;;;;9.40;7.47;;;;;;;19.48;41.42;102359.17;1664917;84;21090;-80
2022/10/17 02:15:18;;;;;;;9.00;7.22;;;;;;;19.48;41.43;102361.39;1694489;84;21053;-80
2022/10/17 02:17:56;;;;;;;9.30;7.17;;;;;;;19.49;41.43;102364.98;1694598;83;21163;-80
2022/10/17 02:20:46;;;;;;;8.75;7.10;;;;;;;19.48;41.42;102364.69;1694094;83;21070;-80
2022/10/17 02:23:42;;;;;;;9.73;6.42;;;;;;;19.48;41.44;102363.31;1691686;83;21101;-80
2022/10/17 02:26:29;;;;;;;9.33;7.35;;;;;;;19.47;41.42;102364.44;1694022;83;21133;-80
2022/10/17 02:29:09;;;;;;;9.30;6.65;;;;;;;19.47;41.39;102362.52;1685634;83;21049;-80
2022/10/17 02:31:40;;;;;;;10.40;7.20;;;;;;;19.47;41.42;102363.06;1695130;84;21199;-80
2022/10/17 02:34:21;;;;;;;8.45;6.33;;;;;;;19.46;41.42;102363.61;1692080;83;21047;-80
2022/10/17 02:36:52;;;;;;;9.00;6.58;;;;;;;19.46;41.42;102368.30;1694904;84;21107;-80
2022/10/17 02:39:20;;;;;;;8.53;6.70;;;;;;;19.46;41.42;102365.53;1692058;83;21588;-80
2022/10/17 02:41:47;;;;;;;8.28;6.60;;;;;;;19.46;41.42;102378.79;1695099;83;21061;-80
2022/10/17 02:44:20;;;;;;;8.55;6.58;;;;;;;19.46;41.42;102369.67;1691843;84;21181;-80
2022/10/17 02:46:52;;;;;;;8.00;6.70;;;;;;;19.45;41.44;102368.84;1667350;84;21512;-80
2022/10/17 02:49:22;;;;;;;8.10;6.25;;;;;;;19.46;41.46;102377.41;1691817;84;21142;-80
2022/10/17 02:52:02;;;;;;;9.20;6.80;;;;;;;19.46;41.42;102383.48;1695107;83;21035;-80
2022/10/17 02:54:45;;;;;;;9.78;6.90;;;;;;;19.45;41.40;102382.64;1691094;84;21573;-80
2022/10/17 02:57:35;;;;;;;8.90;6.62;;;;;;;19.45;41.38;102380.42;1655631;85;21679;-80
2022/10/17 03:00:01;;;;;;;9.10;6.60;;;;;;;19.45;41.38;102385.95;1694687;83;22204;-80
2022/10/17 03:02:27;;;;;;;10.95;6.80;;;;;;;19.45;41.38;102384.56;1717565;82;21057;-80
2022/10/17 03:04:55;;;;;;;7.60;6.05;;;;;;;19.45;41.36;102385.95;1667490;84;21105;-80
2022/10/17 03:07:21;;;;;;;8.58;6.58;;;;;;;19.45;41.37;102386.78;1717108;82;21060;-80
2022/10/17 03:09:47;;;;;;;10.08;7.30;;;;;;;19.44;41.36;102382.36;1717489;83;21495;-80
2022/10/17 03:12:14;;;;;;;9.43;6.80;;;;;;;19.45;41.35;102386.78;1716508;83;20993;-80
2022/10/17 03:14:40;;;;;;;11.48;6.85;;;;;;;19.46;41.33;102389.00;1692665;83;21061;-79
2022/10/17 03:17:06;;;;;;;8.13;6.30;;;;;;;19.45;41.31;102392.84;1667161;84;21081;-80
2022/10/17 03:19:33;;;;;;;7.80;6.17;;;;;;;19.46;41.30;102387.62;1717060;82;21507;-80
2022/10/17 03:21:59;;;;;;;9.08;6.40;;;;;;;19.46;41.28;102395.89;1721729;83;21108;-80
2022/10/17 03:24:26;;;;;;;9.23;6.62;;;;;;;19.45;41.28;102396.45;1725175;81;21459;-80
2022/10/17 03:26:58;;;;;;;9.30;6.78;;;;;;;19.45;41.31;102396.45;1690208;84;21078;-80
2022/10/17 03:29:24;;;;;;;7.20;6.17;;;;;;;19.46;41.37;102401.42;1720284;82;21056;-80
2022/10/17 03:31:51;;;;;;;8.65;6.15;;;;;;;19.47;41.39;102401.70;1697233;83;21072;-80
2022/10/17 03:34:17;;;;;;;9.30;6.42;;;;;;;19.47;41.37;102397.02;1726012;81;21230;-80
2022/10/17 03:36:44;;;;;;;7.60;5.58;;;;;;;19.50;41.35;102401.16;1719000;83;21048;-80
2022/10/17 03:39:10;;;;;;;8.23;6.28;;;;;;;19.52;41.33;102403.91;1755454;81;21563;-80
2022/10/17 03:41:37;;;;;;;9.15;6.05;;;;;;;19.55;41.29;102397.86;1719356;82;21068;-80
2022/10/17 03:44:03;;;;;;;7.15;5.85;;;;;;;19.56;41.25;102401.46;1718758;83;21100;-80
2022/10/17 03:46:36;;;;;;;10.03;6.55;;;;;;;19.58;41.22;102400.62;1724387;82;21168;-79
2022/10/17 03:49:02;;;;;;;9.40;5.97;;;;;;;19.59;41.21;102401.73;1740644;82;21033;-80
2022/10/17 03:51:28;;;;;;;7.47;5.47;;;;;;;19.61;41.18;102405.04;1723364;82;21127;-80
2022/10/17 03:53:55;;;;;;;7.95;5.58;;;;;;;19.65;41.17;102409.46;1744704;81;22287;-79
2022/10/17 03:56:23;;;;;;;9.43;5.85;;;;;;;19.69;41.13;102407.81;1719252;82;21056;-83
2022/10/17 03:58:49;;;;;;;8.13;5.55;;;;;;;19.73;41.02;102407.55;1754980;80;21207;-78
2022/10/17 04:01:21;;;;;;;8.30;5.55;;;;;;;19.76;40.93;102407.02;1754928;81;21489;-78
2022/10/17 04:03:49;;;;;;;7.58;5.42;;;;;;;19.85;40.85;102421.95;1719017;82;21499;-77
2022/10/17 04:06:16;;;;;;;6.60;5.10;;;;;;;19.96;40.80;102417.26;1718527;83;21061;-78
2022/10/17 04:08:42;;;;;;;7.53;5.22;;;;;;;20.08;40.70;102414.50;1718909;82;21067;-78
2022/10/17 04:11:10;;;;;;;6.90;5.12;;;;;;;20.20;40.61;102416.19;1755012;80;21478;-78
2022/10/17 04:13:36;;;;;;;6.83;4.75;;;;;;;20.31;40.52;102416.48;1718886;83;21002;-78
2022/10/17 04:16:07;;;;;;;8.80;5.35;;;;;;;20.45;40.39;102427.27;1695567;83;21112;-78
2022/10/17 04:18:33;;;;;;;8.60;5.55;;;;;;;20.57;40.27;102422.83;1714144;83;21073;-78
2022/10/17 04:21:03;;;;;;;10.98;5.20;;;;;;;20.68;40.13;102421.69;1706602;83;21065;-78
2022/10/17 04:23:30;;;;;;;7.95;5.05;;;;;;;20.81;39.97;102426.64;1719068;82;21118;-79
2022/10/17 04:25:59;;;;;;;7.20;5.10;;;;;;;20.91;39.83;102429.40;1719323;82;21041;-78
2022/10/17 04:28:26;;;;;;;7.03;5.53;;;;;;;21.02;39.67;102424.65;1719236;82;21064;-78
2022/10/17 04:31:00;;;;;;;8.30;5.40;;;;;;;21.11;39.51;102429.33;1729356;81;21487;-83
2022/10/17 04:33:27;;;;;;;10.55;5.00;;;;;;;21.21;39.34;102433.48;1711710;83;21119;-78
2022/10/17 04:36:06;;;;;;;9.85;5.25;;;;;;;21.29;39.18;102431.52;1749406;80;21032;-79
2022/10/17 04:38:32;;;;;;;8.90;5.55;;;;;;;21.37;39.02;102439.78;1713585;82;21060;-79
2022/10/17 04:41:02;;;;;;;9.53;5.78;;;;;;;21.45;38.88;102443.89;1696325;82;21112;-78
2022/10/17 04:43:36;;;;;;;14.35;7.08;;;;;;;21.49;38.65;102441.66;1688392;83;21097;-79
2022/10/17 04:46:05;;;;;;;17.85;9.15;;;;;;;21.54;38.53;102443.58;1712545;83;21065;-78
2022/10/17 04:48:32;;;;;;;15.93;10.35;;;;;;;21.58;38.26;102438.58;1708746;82;21117;-75
2022/10/17 04:51:01;;;;;;;26.10;12.78;;;;;;;21.57;38.08;102452.14;1689766;83;21180;-83
2022/10/17 04:53:28;;;;;;;27.48;13.18;;;;;;;21.56;37.87;102445.49;1694743;82;22075;-84
2022/10/17 04:55:54;;;;;;;23.12;11.80;;;;;;;21.56;37.67;102447.70;1706392;81;21087;-85
2022/10/17 04:58:20;;;;;;;26.35;11.68;;;;;;;21.59;37.54;102451.31;1740993;80;21333;-84
2022/10/17 05:00:47;;;;;;;29.55;11.15;;;;;;;21.64;37.43;102444.92;1739634;80;22027;-82
2022/10/17 05:03:13;;;;;;;24.95;11.75;;;;;;;21.68;37.36;102455.15;1701643;81;21051;-79
2022/10/17 05:05:40;;;;;;;20.57;11.05;;;;;;;21.69;37.12;102454.02;1742861;80;21088;-79
2022/10/17 05:08:10;;;;;;;22.70;10.25;;;;;;;21.71;37.27;102459.28;1742057;80;21337;-80
2022/10/17 05:10:41;;;;;;;18.00;9.68;;;;;;;21.76;37.26;102460.09;1736102;81;21197;-81
2022/10/17 05:13:07;;;;;;;21.97;9.53;;;;;;;21.81;37.32;102455.88;1744104;81;21134;-79
2022/10/17 05:15:34;;;;;;;20.82;9.98;;;;;;;21.85;37.37;102463.88;1702094;82;21756;-80
2022/10/17 05:18:01;;;;;;;22.73;9.75;;;;;;;21.88;37.42;102463.34;1678728;83;21067;-80
2022/10/17 05:20:27;;;;;;;24.02;10.10;;;;;;;21.94;37.44;102464.14;1697912;82;21146;-79
2022/10/17 05:22:53;;;;;;;25.32;10.15;;;;;;;21.99;37.42;102468.83;1701073;80;22547;-79
2022/10/17 05:25:20;;;;;;;20.32;9.93;;;;;;;22.04;37.43;102467.41;1713946;81;22419;-79
2022/10/17 05:27:46;;;;;;;22.10;10.30;;;;;;;22.09;37.44;102471.55;1734954;80;21100;-79
2022/10/17 05:30:12;;;;;;;22.13;10.70;;;;;;;22.13;37.42;102481.77;1714061;81;21059;-80
2022/10/17 05:32:39;;;;;;;20.02;10.03;;;;;;;22.16;37.42;102481.73;1742603;81;21048;-80
2022/10/17 05:35:06;;;;;;;20.43;9.75;;;;;;;22.20;37.45;102475.88;1738600;81;21058;-79
2022/10/17 05:37:32;;;;;;;20.15;9.88;;;;;;;22.24;37.44;102475.58;1753483;81;21378;-80
2022/10/17 05:39:59;;;;;;;19.20;10.43;;;;;;;22.25;37.42;102479.45;1705596;83;21123;-79
2022/10/17 05:42:25;;;;;;;19.20;11.08;;;;;;;22.31;37.42;102493.56;1731958;81;21107;-78
2022/10/17 05:44:51;;;;;;;20.37;10.55;;;;;;;22.36;37.41;102501.58;1732906;80;21056;-79
2022/10/17 05:47:18;;;;;;;21.15;11.08;;;;;;;22.38;37.38;102502.94;1721931;80;21070;-83
2022/10/17 05:49:44;;;;;;;25.68;10.78;;;;;;;22.38;37.42;102509.86;1702288;82;21063;-80
2022/10/17 05:52:11;;;;;;;28.80;9.15;;;;;;;22.38;37.45;102518.19;1739022;81;21127;-78
2022/10/17 05:54:37;;;;;;;31.23;10.43;;;;;;;22.37;37.51;102525.39;1749446;81;21032;-83
2022/10/17 05:57:04;;;;;;;31.65;10.05;;;;;;;22.33;37.63;102518.22;1742869;81;21084;-81
2022/10/17 05:59:30;;;;;;;34.45;9.48;;;;;;;22.32;37.77;102522.93;1710748;82;21155;-78
2022/10/17 06:01:57;;;;;;;34.45;10.28;;;;;;;22.35;37.85;102520.71;1740197;79;21222;-82
2022/10/17 06:04:23;;;;;;;39.15;10.90;;;;;;;22.35;37.91;102527.09;1708817;81;21318;-80
2022/10/17 06:06:49;;;;;;;31.77;10.80;;;;;;;22.34;37.94;102533.75;1737248;80;21071;-80
2022/10/17 06:09:16;;;;;;;36.17;11.35;;;;;;;22.33;37.96;102539.02;1738016;80;21012;-79
2022/10/17 06:11:43;;;;;;;36.95;10.70;;;;;;;22.32;38.01;102535.96;1730252;81;21555;-82
2022/10/17 06:14:09;;;;;;;34.25;11.00;;;;;;;22.33;38.06;102544.00;1700828;82;21248;-82
2022/10/17 06:16:35;;;;;;;30.12;11.25;;;;;;;22.34;38.16;102555.93;1733644;81;21036;-79
2022/10/17 06:19:02;;;;;;;29.23;11.00;;;;;;;22.33;38.32;102548.72;1698274;82;21088;-80
2022/10/17 06:21:28;;;;;;;26.30;10.10;;;;;;;22.30;38.41;102547.36;1704016;80;21104;-79
2022/10/17 06:23:55;;;;;;;33.78;11.35;;;;;;;22.27;38.51;102545.73;1747745;80;21122;-80
2022/10/17 06:26:21;;;;;;;25.95;9.53;;;;;;;22.22;38.64;102553.52;1716281;81;21158;-78
2022/10/17 06:28:48;;;;;;;29.48;11.68;;;;;;;22.20;38.79;102554.90;1736328;80;21142;-77
2022/10/17 06:31:15;;;;;;;25.57;11.70;;;;;;;22.17;38.92;102552.70;1727027;80;21210;-76
2022/10/17 06:33:42;;;;;;;25.05;10.75;;;;;;;22.13;39.04;102558.55;1693884;82;21032;-80
2022/10/17 06:36:11;;;;;;;27.73;11.00;;;;;;;22.09;39.15;102560.24;1739168;81;21099;-77
2022/10/17 06:38:38;;;;;;;27.48;11.57;;;;;;;22.08;39.26;102564.12;1734440;80;21158;-78
2022/10/17 06:41:13;;;;;;;35.55;11.78;;;;;;;22.05;39.35;102559.98;1732100;81;21079;-82
2022/10/17 06:43:42;;;;;;;25.68;11.70;;;;;;;22.03;39.48;102560.81;1699517;82;21536;-82
2022/10/17 06:46:08;;;;;;;31.33;11.75;;;;;;;21.97;39.55;102561.97;1725834;81;21063;-80
2022/10/17 06:48:34;;;;;;;28.98;11.45;;;;;;;21.94;39.63;102569.45;1703044;82;21095;-80
2022/10/17 06:51:01;;;;;;;36.17;11.73;;;;;;;21.90;39.80;102563.38;1738890;80;21829;-84
2022/10/17 06:53:28;;;;;;;35.83;10.58;;;;;;;21.81;39.80;102566.70;1738081;80;21039;-87
2022/10/17 06:56:00;;;;;;;33.98;11.05;;;;;;;21.73;39.68;102561.75;1745556;81;21278;-79
2022/10/17 06:58:23;;;;;;;28.20;10.05;;;;;;;21.66;39.68;102565.95;1712595;81;21139;-78
2022/10/17 07:00:49;;;;;;;37.93;10.03;;;;;;;21.58;39.68;102567.36;1705989;80;21151;-83
2022/10/17 07:03:15;;;;;;;40.75;10.60;;;;;;;21.52;39.72;102567.09;1697822;82;21230;-80
2022/10/17 07:05:42;;;;;;;43.30;10.50;;;;;;;21.48;39.76;102564.61;1709557;81;21034;-74
2022/10/17 07:08:08;;;;;;;31.42;10.50;;;;;;;21.42;39.77;102568.52;1702901;81;21693;-75
2022/10/17 07:10:37;;;;;;;36.90;9.83;;;;;;;21.36;39.96;102569.08;1703740;82;21069;-78
2022/10/17 07:13:03;;;;;;;27.00;9.48;;;;;;;21.35;40.06;102574.34;1639662;85;21098;-78
2022/10/17 07:15:31;;;;;;;35.28;11.12;;;;;;;21.35;40.21;102573.50;1751159;81;21538;-76
2022/10/17 07:17:57;;;;;;;25.68;10.58;;;;;;;21.34;40.39;102575.44;1697707;82;21088;-76
2022/10/17 07:20:23;;;;;;;25.62;9.88;;;;;;;21.34;40.49;102579.59;1734655;80;21071;-76
2022/10/17 07:22:50;;;;;;;29.27;11.03;;;;;;;21.34;40.62;102580.97;1729182;81;21080;-76
2022/10/17 07:25:16;;;;;;;32.58;11.45;;;;;;;21.34;40.70;102581.56;1740661;80;21617;-77
2022/10/17 07:27:43;;;;;;;29.27;10.53;;;;;;;21.32;40.79;102580.44;1699257;80;21830;-77
2022/10/17 07:30:10;;;;;;;26.27;10.48;;;;;;;21.30;40.86;102584.61;1696820;83;21092;-79
2022/10/17 07:32:36;;;;;;;27.93;11.33;;;;;;;21.29;40.91;102582.95;1695446;82;21083;-79
2022/10/17 07:35:03;;;;;;;27.93;11.08;;;;;;;21.27;40.94;102584.59;1740141;80;20955;-75
2022/10/17 07:37:30;;;;;;;25.12;11.73;;;;;;;21.25;40.95;102578.53;1741792;81;21150;-78
2022/10/17 07:39:56;;;;;;;27.42;11.70;;;;;;;21.24;41.02;102578.80;1697206;81;21965;-79
2022/10/17 07:42:23;;;;;;;25.75;11.60;;;;;;;21.22;41.15;102582.37;1697034;83;21047;-81
2022/10/17 07:44:49;;;;;;;28.55;12.88;;;;;;;21.21;41.23;102581.58;1735314;81;21594;-78
2022/10/17 07:47:16;;;;;;;32.42;11.55;;;;;;;21.21;41.30;102582.97;1744421;81;21095;-77
2022/10/17 07:49:44;;;;;;;44.77;11.03;;;;;;;21.18;41.29;102587.66;1695096;81;21748;-76
2022/10/17 07:52:13;;;;;;;31.85;10.28;;;;;;;21.16;41.20;102595.97;1674041;83;22009;-77
2022/10/17 07:54:40;;;;;;;36.03;9.08;;;;;;;21.05;40.87;102597.87;1735016;80;21076;-77
2022/10/17 07:57:06;;;;;;;29.75;7.95;;;;;;;20.93;40.68;102598.16;1703456;82;21055;-78
2022/10/17 07:59:36;;;;;;;18.37;7.83;;;;;;;20.86;40.60;102602.31;1735650;80;21063;-77
2022/10/17 08:02:04;;;;;;;27.20;7.55;;;;;;;20.81;40.43;102593.45;1696742;81;21114;-85
2022/10/17 08:04:30;;;;;;;38.30;8.88;;;;;;;20.72;39.91;102590.95;1729575;81;21099;-78
2022/10/17 08:06:56;;;;;;;27.70;7.60;;;;;;;20.64;39.96;102591.51;1697400;82;21756;-78
2022/10/17 08:09:23;;;;;;;36.25;7.83;;;;;;;20.62;40.03;102589.59;1743462;80;21544;-79
2022/10/17 08:11:49;;;;;;;19.75;7.33;;;;;;;20.62;39.88;102592.35;1742511;80;21723;-77
2022/10/17 08:14:15;;;;;;;15.05;7.05;;;;;;;20.63;39.66;102595.38;1745692;80;21196;-80
2022/10/17 08:16:42;;;;;;;22.20;6.90;;;;;;;20.61;39.41;102590.68;1756693;80;21117;-79
2022/10/17 08:19:10;;;;;;;24.05;7.37;;;;;;;20.60;39.34;102593.16;1737616;80;21103;-83
2022/10/17 08:21:36;;;;;;;20.43;6.67;;;;;;;20.60;39.16;102591.78;1734870;81;21337;-84
2022/10/17 08:24:04;;;;;;;20.52;6.65;;;;;;;20.59;39.01;102592.87;1715703;81;40303;-86
2022/10/17 08:26:31;;;;;;;13.85;5.85;;;;;;;20.57;38.97;102592.89;1697896;83;21541;-86
2022/10/17 08:28:57;;;;;;;20.02;5.78;;;;;;;20.56;38.76;102587.91;1707483;81;21150;-86
2022/10/17 08:31:23;;;;;;;15.03;6.42;;;;;;;20.54;38.55;102581.00;1743393;80;21590;-82
2022/10/17 08:33:50;;;;;;;17.37;5.87;;;;;;;20.50;38.48;102582.91;1741886;81;21508;-82
2022/10/17 08:36:18;;;;;;;10.58;5.85;;;;;;;20.50;38.43;102579.31;1745062;81;21072;-82
2022/10/17 08:38:48;;;;;;;17.75;5.33;;;;;;;20.47;38.20;102577.10;1681113;80;21595;-84
2022/10/17 08:41:48;;;;;;;14.85;5.28;;;;;;;20.40;38.24;102577.38;1733485;80;21175;-87
2022/10/17 08:44:43;;;;;;;23.92;7.00;;;;;;;20.40;38.08;102582.08;1698126;83;21113;-86
2022/10/17 08:47:13;;;;;;;21.55;6.15;;;;;;;20.32;38.38;102569.63;1740621;80;21052;-80
2022/10/17 08:49:51;;;;;;;;;;;;;;;20.28;38.68;102570.41;1743635;81;21075;-83
2022/10/17 08:52:42;;;;;;;22.60;5.20;;;;;;;20.26;38.81;102572.05;1747544;80;20244;-82
2022/10/17 08:55:38;;;;;;;27.48;5.58;;;;;;;20.24;38.76;102569.30;1703181;81;21182;-85
2022/10/17 08:58:28;;;;;;;16.93;5.00;;;;;;;20.20;38.80;102570.95;1703268;82;21071;-85
2022/10/17 09:01:15;;;;;;;20.87;4.93;;;;;;;20.20;38.93;102576.48;1746187;80;21519;-84
2022/10/17 09:04:27;;;;;;;19.05;4.62;;;;;;;20.16;38.58;102578.09;1749261;80;21043;-85
2022/10/17 09:07:25;;;;;;;17.48;4.60;;;;;;;20.12;38.43;102578.36;1713661;81;21099;-86
2022/10/17 09:10:31;;;;;;;27.80;6.33;;;;;;;20.08;38.50;102565.09;1703055;82;21365;-85
2022/10/17 09:13:12;;;;;;;13.53;4.65;;;;;;;20.11;38.46;102573.95;1699449;82;21424;-84
2022/10/17 09:15:51;;;;;;;;;;;;;;;20.16;38.54;102583.08;1743762;80;21707;-83
2022/10/17 09:18:33;;;;;;;11.30;4.05;;;;;;;20.19;38.38;102574.27;1747758;81;20251;-82
2022/10/17 09:21:27;;;;;;;10.55;3.80;;;;;;;20.21;38.40;102580.88;1700199;82;21372;-82
2022/10/17 09:24:02;;;;;;;13.03;4.10;;;;;;;20.23;38.33;102582.28;1707563;82;21151;-87
2022/10/17 09:26:29;;;;;;;11.20;3.87;;;;;;;20.27;38.26;102584.78;1713631;83;21270;-82
2022/10/17 09:28:58;;;;;;;12.37;4.15;;;;;;;20.30;38.27;102577.90;1710873;81;21969;-83
2022/10/17 09:31:34;;;;;;;15.35;4.03;;;;;;;20.33;38.18;102574.58;1722245;81;21558;-83
2022/10/17 09:34:01;;;;;;;10.93;3.70;;;;;;;20.35;38.13;102577.91;1711412;81;21142;-86
2022/10/17 09:36:36;;;;;;;14.07;3.60;;;;;;;20.37;37.98;102577.91;1709594;82;21061;-84
2022/10/17 09:39:18;;;;;;;9.50;3.87;;;;;;;20.38;37.70;102575.97;1713118;81;22099;-83
2022/10/17 09:41:54;;;;;;;8.30;3.62;;;;;;;20.35;37.53;102573.77;1704379;83;21023;-81
2022/10/17 09:44:31;;;;;;;6.85;3.30;;;;;;;20.29;37.36;102571.53;1706682;81;21550;-83
2022/10/17 09:47:09;;;;;;;7.97;3.22;;;;;;;20.27;37.24;102572.89;1718815;83;21091;-84
2022/10/17 09:49:41;;;;;;;8.05;3.12;;;;;;;20.24;36.97;102572.87;1711009;82;21279;-82
2022/10/17 09:52:21;;;;;;;12.35;4.10;;;;;;;20.19;36.84;102562.37;1705928;81;21135;-85
2022/10/17 09:54:58;;;;;;;19.48;4.00;;;;;;;20.19;36.86;102563.75;1672142;83;21550;-87
2022/10/17 09:57:25;;;;;;;20.27;4.47;;;;;;;20.22;37.29;102559.89;1709736;81;21091;-87
2022/10/17 10:00:04;;;;;;;20.95;4.42;;;;;;;20.28;37.74;102562.95;1712729;81;21605;-85
2022/10/17 10:02:35;;;;;;;22.02;4.40;;;;;;;20.30;37.47;102558.55;1723929;81;21900;-92
2022/10/17 10:05:07;;;;;;;24.57;3.90;;;;;;;20.30;37.40;102557.16;1708213;81;21581;-83
2022/10/17 10:07:38;;;;;;;18.77;3.83;;;;;;;20.30;37.42;102550.25;1706741;81;21536;-85
2022/10/17 10:10:26;;;;;;;21.35;3.85;;;;;;;20.30;37.18;102547.49;1714702;82;21279;-85
2022/10/17 10:13:16;;;;;;;13.03;3.37;;;;;;;20.30;37.32;102548.33;1716756;81;21092;-85
2022/10/17 10:15:48;;;;;;;12.73;3.52;;;;;;;20.31;37.32;102543.62;1693411;83;21949;-85
2022/10/17 10:18:28;;;;;;;18.37;4.25;;;;;;;20.31;37.48;102543.62;1712492;81;21036;-85
2022/10/17 10:21:18;;;;;;;19.17;4.50;;;;;;;20.34;37.56;102545.84;1721164;83;21036;-85
2022/10/17 10:24:07;;;;;;;15.65;3.55;;;;;;;20.35;37.65;102541.98;1704651;81;21112;-84
2022/10/17 10:26:40;;;;;;;8.95;3.72;;;;;;;20.35;37.68;102541.43;1711598;81;21068;-84
2022/10/17 10:29:24;;;;;;;8.40;3.50;;;;;;;20.35;37.58;102530.92;1758995;80;21157;-84
2022/10/17 10:31:50;;;;;;;10.60;4.12;;;;;;;20.34;37.63;102530.64;1717099;81;21136;-84
2022/10/17 10:34:25;;;;;;;9.08;3.75;;;;;;;20.33;37.54;102526.20;1725784;81;21138;-82
2022/10/17 10:37:06;;;;;;;18.55;4.17;;;;;;;20.32;37.51;102519.88;1756438;81;21098;-83
2022/10/17 10:39:44;;;;;;;49.70;9.15;;;;;;;20.34;37.51;102520.96;1716109;83;21051;-87
2022/10/17 10:42:24;;;;;;;80.72;10.28;;;;;;;20.34;37.49;102514.05;1713099;81;21510;-87
2022/10/17 10:44:52;;;;;;;53.20;16.15;;;;;;;20.32;37.56;102508.81;1744768;80;21240;-83
2022/10/17 10:47:25;;;;;;;40.43;11.63;;;;;;;20.32;37.63;102510.75;1691198;83;21116;-84
2022/10/17 10:50:08;;;;;;;51.65;12.35;;;;;;;20.31;37.69;102502.17;1707894;81;21087;-84
2022/10/17 10:52:55;;;;;;;42.90;10.10;;;;;;;20.32;37.76;102498.31;1657533;84;21210;-84
2022/10/17 10:55:38;;;;;;;30.48;7.87;;;;;;;20.30;37.91;102491.66;1709465;81;21607;-82
2022/10/17 10:58:31;;;;;;;40.67;6.95;;;;;;;20.34;38.18;102491.94;1751517;80;21076;-84
2022/10/17 11:00:59;;;;;;;30.12;6.20;;;;;;;20.38;38.45;102495.81;1758975;80;21173;-86
2022/10/17 11:03:37;;;;;;;29.77;6.30;;;;;;;20.41;38.56;102489.17;1723946;81;21075;-86
2022/10/17 11:06:09;;;;;;;28.73;6.55;;;;;;;20.43;38.58;102484.21;1711136;81;21058;-86
2022/10/17 11:09:13;;;;;;;23.55;5.97;;;;;;;20.44;38.62;102481.73;1707025;79;21154;-85
2022/10/17 11:11:50;;;;;;;31.37;7.35;;;;;;;20.45;38.65;102480.59;1714100;80;21080;-85
2022/10/17 11:14:39;;;;;;;23.15;6.45;;;;;;;20.42;38.65;102478.95;1710280;81;21558;-86
2022/10/17 11:17:27;;;;;;;22.67;6.58;;;;;;;20.40;38.64;102479.23;1688230;83;21068;-85
2022/10/17 11:20:31;;;;;;;36.60;6.95;;;;;;;20.39;38.71;102477.58;1725310;81;21075;-86
2022/10/17 11:23:26;;;;;;;18.27;6.67;;;;;;;20.38;38.76;102476.45;1753224;80;21872;-85
2022/10/17 11:25:53;;;;;;;21.62;6.60;;;;;;;20.37;38.76;102464.56;1723964;81;21127;-83
2022/10/17 11:28:21;;;;;;;28.77;6.17;;;;;;;20.36;38.80;102468.45;1720899;81;21067;-85
2022/10/17 11:31:03;;;;;;;21.12;7.00;;;;;;;20.35;38.80;102459.88;1721318;83;21068;-84
2022/10/17 11:33:47;;;;;;;25.95;6.83;;;;;;;20.36;38.84;102461.55;1689815;83;21094;-85
2022/10/17 11:36:15;;;;;;;15.48;5.60;;;;;;;20.35;38.88;102455.73;1691657;82;21133;-85
2022/10/17 11:39:05;;;;;;;22.52;6.17;;;;;;;20.35;38.88;102455.73;1668938;83;21610;-88
2022/10/17 11:41:45;;;;;;;17.25;6.05;;;;;;;20.35;38.85;102443.84;1692719;81;21078;-86